EDMN weather

Mindelheim-Mattsies Airfield
Mindelheim, Bavaria, Germany

Public forecast

Using degrees Celsius for public forecast. Weather courtesy of forecast.io.

METAR (pilot weather report)

Report is more than 6 hours old.

Closest report is Memmingen Allgau Airport, 13.5 nm (25.0 km) WSW. Retrieved 2019/09/16 21:50 UTC (3 days ago):

EDJA 162150Z 17004KT 9999 FEW061 BKN140 BKN170 16/14 Q1020

TAF (pilot weather forecast)

Forecast is more than 12 hours old.

Closest forecast is Lechfeld Air Base, 14.3 nm (26.4 km) ENE. Retrieved 2016/01/19 15:42 UTC (4 years ago):

TAF ETSL 191727Z 1915/2003 VRB03KT 9999 NSW SCT020 BKN040 TEMPO 1915/2003 VRB03KT 4000 -SN BKN010 BKN030 PROB30 2001/2003 VRB02KT 0800 FZFG VV001 BY ETGL